Terminal Aerodrome Forecast
Issued by NWS

Home | Current Version | Previous Version | Text Only | Print | Product List | Glossary On
Versions: 1 2 3 4 5 6 7 8 9 10 11 12 13 14 15 16 17 18
562
FTUS43 KAPX 290542
TAFMBL
TAF
KMBL 290542Z 2906/3006 23005KT P6SM FEW250
     FM291400 24009KT P6SM SCT250
     FM291800 24014G22KT P6SM SCT060
     FM292100 24012G22KT P6SM VCSH BKN060
     FM292200 25009KT P6SM VCSH BKN045=

USA.gov is the U.S. government's official web portal to all federal, state and local government web resources and services.